Fernie, Canada
Current Conditions -  °F | °C
As of 5:00 PM on Thursday 27 Nov 2014 (Local Time) from CYXC Reporting Station
Broken Clouds Broken Clouds  
Wind Chill: 38°   Ceiling: 9000
Heat Index: 43°   Visibility: 15mi
Dew Point: 37°   Wind: 8mph
Humidity: 81%   Direction: 150°SSE
Pressure: 29.67"   Gusts: NA
Location:  49.51°N, 115.06°W
Report Text: CYXC 280000Z 15007KT 15SM FEW020 SCT050 BKN090 06/03 A2967 RMK CF1SC2AC2 SH DIST S-NW SLP066
Loading
Personal Weather Stations






























Interactive Weather Map New forecast layout! Learn more

10-Day Weather Forecast

Advertisements
Track Severe Weather on mobile